Time;durP1;ratioP1;P1;durP2;ratioP2;P2;SDS_P1;SDS_P2;PMS_P1;PMS_P2;Temp;Humidity;BMP_temperature;BMP_pressure;BME280_temperature;BME280_humidity;BME280_pressure;Samples;Min_cycle;Max_cycle;Signal;HPM_P1;HPM_P2
2024/01/28 00:04:23;;;;;;;90.37;35.83;;;;;;;;;;10407160;28;20021;-79
2024/01/28 00:09:24;;;;;;;92.87;34.60;;;;;;;;;;10406687;28;20508;-80
2024/01/28 00:14:26;;;;;;;89.00;35.27;;;;;;;;;;10417262;28;20057;-80
2024/01/28 00:19:27;;;;;;;95.23;37.90;;;;;;;;;;10406958;28;20033;-79
2024/01/28 00:24:28;;;;;;;92.73;36.77;;;;;;;;;;10407325;28;20183;-79
2024/01/28 00:29:29;;;;;;;92.07;39.17;;;;;;;;;;10412035;28;20072;-79
2024/01/28 00:34:30;;;;;;;74.73;33.17;;;;;;;;;;10406543;28;20065;-81
2024/01/28 00:39:31;;;;;;;82.33;35.80;;;;;;;;;;10441130;28;20052;-82
2024/01/28 00:44:32;;;;;;;98.13;38.23;;;;;;;;;;10448085;28;20116;-83
2024/01/28 00:49:33;;;;;;;84.53;35.63;;;;;;;;;;10452201;28;20041;-79
2024/01/28 00:54:34;;;;;;;107.43;43.20;;;;;;;;;;10446867;28;20037;-79
2024/01/28 00:59:35;;;;;;;98.70;39.63;;;;;;;;;;10447307;28;20021;-83
2024/01/28 01:04:36;;;;;;;91.90;36.73;;;;;;;;;;10444306;28;20052;-79
2024/01/28 01:09:37;;;;;;;80.17;34.80;;;;;;;;;;10445467;28;20040;-81
2024/01/28 01:14:38;;;;;;;94.73;40.70;;;;;;;;;;10444990;28;20044;-81
2024/01/28 01:19:39;;;;;;;77.87;33.77;;;;;;;;;;10445602;28;20043;-82
2024/01/28 01:24:40;;;;;;;104.13;47.60;;;;;;;;;;10446325;28;20021;-79
2024/01/28 01:29:41;;;;;;;118.27;49.07;;;;;;;;;;10447421;28;20397;-79
2024/01/28 01:34:42;;;;;;;101.80;43.27;;;;;;;;;;10448895;28;20040;-79
2024/01/28 01:39:43;;;;;;;92.90;41.07;;;;;;;;;;10451343;28;20090;-79
2024/01/28 01:44:44;;;;;;;102.17;42.50;;;;;;;;;;10445625;28;20135;-81
2024/01/28 01:49:45;;;;;;;99.70;45.07;;;;;;;;;;10450087;28;20573;-81
2024/01/28 01:54:47;;;;;;;100.03;42.60;;;;;;;;;;10447657;28;20076;-79
2024/01/28 01:59:49;;;;;;;79.27;31.37;;;;;;;;;;10446380;28;20033;-82
2024/01/28 02:04:50;;;;;;;70.53;27.43;;;;;;;;;;10443524;28;20033;-82
2024/01/28 02:09:51;;;;;;;75.37;27.20;;;;;;;;;;10444342;28;20476;-80
2024/01/28 02:15:02;;;;;;;64.27;26.23;;;;;;;;;;10455131;28;20396;-79
2024/01/28 02:20:04;;;;;;;47.67;19.23;;;;;;;;;;10443412;28;20043;-79
2024/01/28 02:25:06;;;;;;;46.93;17.33;;;;;;;;;;10441208;28;20029;-79
2024/01/28 02:30:07;;;;;;;43.77;13.57;;;;;;;;;;10442737;28;20484;-82
2024/01/28 02:35:08;;;;;;;41.97;16.93;;;;;;;;;;10446449;28;20041;-79
2024/01/28 02:40:09;;;;;;;35.30;10.37;;;;;;;;;;10449505;28;20056;-79
2024/01/28 02:45:10;;;;;;;35.57;10.27;;;;;;;;;;10453784;28;20054;-79
2024/01/28 02:50:12;;;;;;;31.10;13.27;;;;;;;;;;10452443;28;20054;-83
2024/01/28 02:55:13;;;;;;;32.60;10.83;;;;;;;;;;10442060;28;20047;-79
2024/01/28 03:00:14;;;;;;;32.50;9.87;;;;;;;;;;10442667;28;20052;-81
2024/01/28 03:05:15;;;;;;;28.97;9.43;;;;;;;;;;10441631;28;20036;-79
2024/01/28 03:10:16;;;;;;;32.37;8.50;;;;;;;;;;10441525;28;20028;-81
2024/01/28 03:15:18;;;;;;;38.07;12.83;;;;;;;;;;10442606;28;20613;-81
2024/01/28 03:20:19;;;;;;;27.23;8.73;;;;;;;;;;10441949;28;20052;-79
2024/01/28 03:25:20;;;;;;;27.67;8.47;;;;;;;;;;10442808;28;20033;-82
2024/01/28 03:30:21;;;;;;;31.13;9.97;;;;;;;;;;10442031;28;20500;-84
2024/01/28 03:35:22;;;;;;;26.23;9.53;;;;;;;;;;10442108;28;20045;-81
2024/01/28 03:40:23;;;;;;;29.13;9.20;;;;;;;;;;10447579;28;20063;-79
2024/01/28 03:45:24;;;;;;;23.80;10.03;;;;;;;;;;10450929;28;20407;-81
2024/01/28 03:50:25;;;;;;;22.53;8.70;;;;;;;;;;10449052;28;20037;-82
2024/01/28 03:55:26;;;;;;;23.20;8.83;;;;;;;;;;10454667;28;20047;-81
2024/01/28 04:00:33;;;;;;;24.40;9.53;;;;;;;;;;10450996;28;20112;-83
2024/01/28 04:05:35;;;;;;;30.30;9.13;;;;;;;;;;10453161;28;20869;-82
2024/01/28 04:10:36;;;;;;;30.23;9.63;;;;;;;;;;10447974;28;20476;-83
2024/01/28 04:15:37;;;;;;;24.90;9.40;;;;;;;;;;10452541;28;20040;-79
2024/01/28 04:20:38;;;;;;;17.57;8.40;;;;;;;;;;10461844;28;20552;-78
2024/01/28 04:25:39;;;;;;;27.20;9.43;;;;;;;;;;10451825;28;20090;-79
2024/01/28 04:30:40;;;;;;;25.00;9.00;;;;;;;;;;10447768;28;20040;-81
2024/01/28 04:35:48;;;;;;;30.87;12.60;;;;;;;;;;10457598;28;20049;-79
2024/01/28 04:40:49;;;;;;;33.77;12.00;;;;;;;;;;10433849;28;20041;-83
2024/01/28 04:45:50;;;;;;;41.03;12.93;;;;;;;;;;10450131;28;20498;-82
2024/01/28 04:50:51;;;;;;;29.83;12.23;;;;;;;;;;10446221;28;20090;-82
2024/01/28 04:55:52;;;;;;;27.97;11.40;;;;;;;;;;10445598;28;20036;-79
2024/01/28 05:00:54;;;;;;;27.70;9.90;;;;;;;;;;10452306;28;20033;-84
2024/01/28 05:05:55;;;;;;;30.13;11.37;;;;;;;;;;10443408;28;20041;-81
2024/01/28 05:10:57;;;;;;;23.37;10.20;;;;;;;;;;10445772;28;20396;-81
2024/01/28 05:15:58;;;;;;;28.87;9.70;;;;;;;;;;10432860;28;20119;-80
2024/01/28 05:21:00;;;;;;;23.73;10.20;;;;;;;;;;10423683;28;20037;-79
2024/01/28 05:26:01;;;;;;;33.73;10.83;;;;;;;;;;10438908;28;20104;-83
2024/01/28 05:31:02;;;;;;;35.90;14.83;;;;;;;;;;10447819;28;20033;-79
2024/01/28 05:36:15;;;;;;;28.80;10.47;;;;;;;;;;10449301;28;20083;-83
2024/01/28 05:41:16;;;;;;;35.37;13.73;;;;;;;;;;10448823;28;20037;-79
2024/01/28 05:46:18;;;;;;;37.93;17.47;;;;;;;;;;10459982;28;20200;-79
2024/01/28 05:51:19;;;;;;;37.87;18.23;;;;;;;;;;10448086;28;20036;-79
2024/01/28 05:56:20;;;;;;;37.27;14.00;;;;;;;;;;10444405;28;20021;-79
2024/01/28 06:01:21;;;;;;;35.03;12.83;;;;;;;;;;10451263;28;20077;-79
2024/01/28 06:06:22;;;;;;;24.27;10.23;;;;;;;;;;10445554;28;20044;-79
2024/01/28 06:11:23;;;;;;;26.87;10.90;;;;;;;;;;10443724;28;20432;-79
2024/01/28 06:16:23;;;;;;;26.67;10.63;;;;;;;;;;10453336;28;20048;-81
2024/01/28 06:21:25;;;;;;;38.33;19.33;;;;;;;;;;10443241;28;20791;-79
2024/01/28 06:26:26;;;;;;;27.90;10.87;;;;;;;;;;10446416;28;20029;-80
2024/01/28 06:31:27;;;;;;;29.17;10.07;;;;;;;;;;10447461;28;20036;-81
2024/01/28 06:36:28;;;;;;;30.67;11.10;;;;;;;;;;10442969;28;20657;-77
2024/01/28 06:41:29;;;;;;;27.90;12.20;;;;;;;;;;10443220;28;20411;-78
2024/01/28 06:46:30;;;;;;;30.47;12.73;;;;;;;;;;10455555;28;20111;-78
2024/01/28 06:51:31;;;;;;;32.53;14.37;;;;;;;;;;10447638;28;20107;-81
2024/01/28 06:56:32;;;;;;;24.37;10.87;;;;;;;;;;10443856;28;20033;-79
2024/01/28 07:01:33;;;;;;;28.00;9.50;;;;;;;;;;10453679;28;20755;-80
2024/01/28 07:06:34;;;;;;;27.77;10.13;;;;;;;;;;10439421;28;20033;-80
2024/01/28 07:11:35;;;;;;;28.00;9.97;;;;;;;;;;10418825;28;20037;-78
2024/01/28 07:16:36;;;;;;;31.17;10.83;;;;;;;;;;10451379;28;20033;-78
2024/01/28 07:21:37;;;;;;;29.33;12.07;;;;;;;;;;10450237;28;20025;-81
2024/01/28 07:26:39;;;;;;;36.53;16.57;;;;;;;;;;10451191;28;20037;-78
2024/01/28 07:31:40;;;;;;;30.23;13.47;;;;;;;;;;10461882;28;20085;-78
2024/01/28 07:36:41;;;;;;;29.30;11.77;;;;;;;;;;10446086;28;20057;-79
2024/01/28 07:41:42;;;;;;;24.83;10.67;;;;;;;;;;10453012;28;20028;-77
2024/01/28 07:46:43;;;;;;;21.70;9.90;;;;;;;;;;10437861;28;20522;-81
2024/01/28 07:51:44;;;;;;;24.40;9.70;;;;;;;;;;10449828;28;20041;-79
2024/01/28 07:56:45;;;;;;;30.90;11.97;;;;;;;;;;10450314;28;20396;-79
2024/01/28 08:01:47;;;;;;;25.47;11.30;;;;;;;;;;10443049;28;20028;-78
2024/01/28 08:06:48;;;;;;;27.90;11.20;;;;;;;;;;10433658;28;20029;-77
2024/01/28 08:11:49;;;;;;;26.27;11.33;;;;;;;;;;10449790;28;20117;-79
2024/01/28 08:16:50;;;;;;;25.47;10.33;;;;;;;;;;10448631;28;20033;-84
2024/01/28 08:21:51;;;;;;;26.37;10.50;;;;;;;;;;10459776;28;20512;-78
2024/01/28 08:26:52;;;;;;;32.33;12.33;;;;;;;;;;10448566;28;20396;-78
2024/01/28 08:31:54;;;;;;;35.00;13.60;;;;;;;;;;10454257;28;20144;-80
2024/01/28 08:36:55;;;;;;;25.57;11.17;;;;;;;;;;10448559;28;20065;-81
2024/01/28 08:41:56;;;;;;;33.10;12.47;;;;;;;;;;10459269;28;20036;-78
2024/01/28 08:46:57;;;;;;;26.17;11.80;;;;;;;;;;10436233;28;20107;-78
2024/01/28 08:51:58;;;;;;;27.23;12.23;;;;;;;;;;10447703;28;20037;-78
2024/01/28 08:56:59;;;;;;;30.47;11.57;;;;;;;;;;10447018;28;20111;-82
2024/01/28 09:02:00;;;;;;;29.70;13.33;;;;;;;;;;10447459;28;20600;-78
2024/01/28 09:07:01;;;;;;;28.47;12.07;;;;;;;;;;10456323;28;20075;-79
2024/01/28 09:12:03;;;;;;;22.67;11.27;;;;;;;;;;10459028;28;20049;-80
2024/01/28 09:17:05;;;;;;;40.67;15.37;;;;;;;;;;10450038;28;20041;-78
2024/01/28 09:22:06;;;;;;;35.87;15.90;;;;;;;;;;10456001;28;20029;-78
2024/01/28 09:27:07;;;;;;;29.37;12.97;;;;;;;;;;10458508;28;20060;-79
2024/01/28 09:32:08;;;;;;;29.07;10.70;;;;;;;;;;10445337;28;20037;-81
2024/01/28 09:37:09;;;;;;;21.63;9.33;;;;;;;;;;10453482;28;20590;-80
2024/01/28 09:42:18;;;;;;;24.83;9.67;;;;;;;;;;10452713;28;20111;-81
2024/01/28 09:47:19;;;;;;;23.23;9.63;;;;;;;;;;10431619;28;20030;-79
2024/01/28 09:52:20;;;;;;;23.97;9.97;;;;;;;;;;10442136;28;20039;-82
2024/01/28 09:57:21;;;;;;;27.53;11.27;;;;;;;;;;10440673;28;20037;-79
2024/01/28 10:02:30;;;;;;;22.20;9.53;;;;;;;;;;10437683;28;20028;-79
2024/01/28 10:07:40;;;;;;;23.17;10.27;;;;;;;;;;10432240;28;20065;-82
2024/01/28 10:12:41;;;;;;;22.77;8.60;;;;;;;;;;10442770;28;20044;-79
2024/01/28 10:17:47;;;;;;;23.37;10.70;;;;;;;;;;10443202;28;20029;-80
2024/01/28 10:22:48;;;;;;;16.88;8.57;;;;;;;;;;10446978;28;20119;-79
2024/01/28 10:28:01;;;;;;;23.23;11.30;;;;;;;;;;10447691;28;20052;-80
2024/01/28 10:33:08;;;;;;;29.80;14.20;;;;;;;;;;10437065;28;20043;-78
2024/01/28 10:38:22;;;;;;;46.47;20.80;;;;;;;;;;10436188;28;20165;-79
2024/01/28 10:43:27;;;;;;;32.50;15.27;;;;;;;;;;10446076;28;20029;-80
2024/01/28 10:48:28;;;;;;;53.03;20.53;;;;;;;;;;10440935;28;20056;-79
2024/01/28 10:53:29;;;;;;;53.77;24.97;;;;;;;;;;10442253;28;20714;-78
2024/01/28 10:58:30;;;;;;;44.10;20.60;;;;;;;;;;10441756;28;20530;-79
2024/01/28 11:03:32;;;;;;;44.37;18.47;;;;;;;;;;10435429;28;20034;-79
2024/01/28 11:08:33;;;;;;;41.23;17.33;;;;;;;;;;10439888;28;20040;-81
2024/01/28 11:13:34;;;;;;;44.93;18.43;;;;;;;;;;10453958;28;20052;-81
2024/01/28 11:18:35;;;;;;;42.77;19.60;;;;;;;;;;10448672;28;20040;-79
2024/01/28 11:23:42;;;;;;;59.67;24.53;;;;;;;;;;10454899;28;20388;-78
2024/01/28 11:28:50;;;;;;;60.90;26.50;;;;;;;;;;10442423;28;20045;-79
2024/01/28 11:33:52;;;;;;;59.17;28.07;;;;;;;;;;10426797;28;20049;-79
2024/01/28 11:38:59;;;;;;;58.13;26.57;;;;;;;;;;10446699;28;20118;-80
2024/01/28 11:44:00;;;;;;;46.83;20.03;;;;;;;;;;10443070;28;20036;-79
2024/01/28 11:49:01;;;;;;;43.07;17.60;;;;;;;;;;10443246;28;20041;-80
2024/01/28 11:54:05;;;;;;;33.77;15.07;;;;;;;;;;10448137;28;20056;-79
2024/01/28 11:59:07;;;;;;;55.97;21.47;;;;;;;;;;10455304;28;20547;-80
2024/01/28 12:04:09;;;;;;;65.23;25.30;;;;;;;;;;10437215;28;20684;-79
2024/01/28 12:09:12;;;;;;;41.00;17.77;;;;;;;;;;10426405;28;20029;-79
2024/01/28 12:14:13;;;;;;;21.43;9.07;;;;;;;;;;10467286;28;20652;-81
2024/01/28 12:19:14;;;;;;;34.77;14.70;;;;;;;;;;10455423;28;20682;-81
2024/01/28 12:24:15;;;;;;;24.77;10.57;;;;;;;;;;10444443;28;20037;-80
2024/01/28 12:29:16;;;;;;;25.87;10.73;;;;;;;;;;10449180;28;20041;-80
2024/01/28 12:34:17;;;;;;;11.10;4.80;;;;;;;;;;10436038;28;20040;-79
2024/01/28 12:39:18;;;;;;;37.63;13.97;;;;;;;;;;10457339;28;20079;-81
2024/01/28 12:44:19;;;;;;;20.63;8.80;;;;;;;;;;10447435;28;20032;-79
2024/01/28 12:49:20;;;;;;;40.67;18.37;;;;;;;;;;10446806;28;20029;-83
2024/01/28 12:54:28;;;;;;;44.20;16.57;;;;;;;;;;10456944;28;20481;-83
2024/01/28 12:59:29;;;;;;;36.27;13.17;;;;;;;;;;10459837;28;20620;-79
2024/01/28 13:04:31;;;;;;;32.60;12.57;;;;;;;;;;10442895;28;20500;-82
2024/01/28 13:09:32;;;;;;;40.80;17.67;;;;;;;;;;10447682;28;20123;-80
2024/01/28 13:14:33;;;;;;;39.50;15.33;;;;;;;;;;10458260;28;20044;-80
2024/01/28 13:19:34;;;;;;;28.60;12.93;;;;;;;;;;10462149;28;20472;-81
2024/01/28 13:24:35;;;;;;;29.03;12.53;;;;;;;;;;10441592;28;20040;-80
2024/01/28 13:29:39;;;;;;;30.97;12.63;;;;;;;;;;10451566;28;20025;-79
2024/01/28 13:34:47;;;;;;;28.97;13.17;;;;;;;;;;10441503;28;20475;-79
2024/01/28 13:39:48;;;;;;;33.17;13.87;;;;;;;;;;10443885;28;20056;-79
2024/01/28 13:44:50;;;;;;;32.83;13.83;;;;;;;;;;10452616;28;20846;-83
2024/01/28 13:49:51;;;;;;;33.37;15.07;;;;;;;;;;10444226;28;20024;-79
2024/01/28 13:54:52;;;;;;;78.67;33.23;;;;;;;;;;10443825;28;20033;-81
2024/01/28 13:59:53;;;;;;;24.70;11.33;;;;;;;;;;10443880;28;20396;-79
2024/01/28 14:04:54;;;;;;;44.40;21.93;;;;;;;;;;10442887;28;20503;-81
2024/01/28 14:09:55;;;;;;;95.03;45.03;;;;;;;;;;10456167;28;20045;-80
2024/01/28 14:14:56;;;;;;;33.10;13.83;;;;;;;;;;10447593;28;20025;-79
2024/01/28 14:20:04;;;;;;;24.17;12.63;;;;;;;;;;10441652;28;20078;-83
2024/01/28 14:25:05;;;;;;;30.67;14.67;;;;;;;;;;10447433;28;20460;-78
2024/01/28 14:30:07;;;;;;;86.47;37.00;;;;;;;;;;10442840;28;20017;-81
2024/01/28 14:35:08;;;;;;;57.63;25.57;;;;;;;;;;10439807;28;20040;-79
2024/01/28 14:40:09;;;;;;;36.73;14.93;;;;;;;;;;10441053;28;20069;-79
2024/01/28 14:45:13;;;;;;;34.30;15.50;;;;;;;;;;10441372;28;20029;-78
2024/01/28 14:50:14;;;;;;;73.53;30.07;;;;;;;;;;10442458;28;20154;-80
2024/01/28 14:55:15;;;;;;;68.90;28.33;;;;;;;;;;10441623;28;20068;-81
2024/01/28 15:00:23;;;;;;;48.53;22.13;;;;;;;;;;10435012;28;20040;-79
2024/01/28 15:05:24;;;;;;;41.90;19.87;;;;;;;;;;10442679;28;20040;-78
2024/01/28 15:10:26;;;;;;;51.30;22.93;;;;;;;;;;10441941;28;20037;-78
2024/01/28 15:15:27;;;;;;;29.40;14.43;;;;;;;;;;10441789;28;20494;-78
2024/01/28 15:20:28;;;;;;;39.27;16.73;;;;;;;;;;10441330;28;20734;-78
2024/01/28 15:25:29;;;;;;;41.63;20.70;;;;;;;;;;10441922;28;20602;-79
2024/01/28 15:30:30;;;;;;;48.33;22.80;;;;;;;;;;10441440;28;20041;-78
2024/01/28 15:35:31;;;;;;;33.47;14.17;;;;;;;;;;10447021;28;20045;-78
2024/01/28 15:40:32;;;;;;;30.67;13.90;;;;;;;;;;10447818;28;20053;-82
2024/01/28 15:45:33;;;;;;;25.50;10.53;;;;;;;;;;10448523;28;20025;-78
2024/01/28 15:50:34;;;;;;;19.27;8.20;;;;;;;;;;10449270;28;20079;-78
2024/01/28 15:55:35;;;;;;;31.23;11.60;;;;;;;;;;10447853;28;20040;-78
2024/01/28 16:00:37;;;;;;;31.83;16.13;;;;;;;;;;10448231;28;20032;-78
2024/01/28 16:05:39;;;;;;;31.87;15.63;;;;;;;;;;10448242;28;20040;-79
2024/01/28 16:10:40;;;;;;;31.37;13.90;;;;;;;;;;10447483;28;20048;-80
2024/01/28 16:15:48;;;;;;;42.90;20.07;;;;;;;;;;10447935;28;20036;-78
2024/01/28 16:20:49;;;;;;;35.67;15.87;;;;;;;;;;10433487;28;20024;-78
2024/01/28 16:25:50;;;;;;;25.57;11.40;;;;;;;;;;10450117;28;20472;-79
2024/01/28 16:30:51;;;;;;;20.10;8.80;;;;;;;;;;10447051;28;20064;-83
2024/01/28 16:35:53;;;;;;;21.13;9.97;;;;;;;;;;10448896;28;20047;-77
2024/01/28 16:40:54;;;;;;;22.57;9.87;;;;;;;;;;10445729;28;20160;-78
2024/01/28 16:45:55;;;;;;;22.00;9.67;;;;;;;;;;10445832;28;20821;-78
2024/01/28 16:50:59;;;;;;;19.07;8.67;;;;;;;;;;10456957;28;20021;-78
2024/01/28 16:56:00;;;;;;;20.30;9.50;;;;;;;;;;10455739;28;20070;-80
2024/01/28 17:01:01;;;;;;;18.77;9.23;;;;;;;;;;10449258;28;20063;-81
2024/01/28 17:06:02;;;;;;;37.00;14.60;;;;;;;;;;10452029;28;20037;-78
2024/01/28 17:11:04;;;;;;;59.50;22.90;;;;;;;;;;10447530;28;20069;-79
2024/01/28 17:16:05;;;;;;;42.80;13.57;;;;;;;;;;10427784;28;20132;-77
2024/01/28 17:21:06;;;;;;;18.70;7.67;;;;;;;;;;10441648;28;20025;-81
2024/01/28 17:26:08;;;;;;;17.30;7.37;;;;;;;;;;10445986;28;20021;-78
2024/01/28 17:31:10;;;;;;;14.43;6.67;;;;;;;;;;10446214;28;20036;-78
2024/01/28 17:36:12;;;;;;;25.23;11.27;;;;;;;;;;10445175;28;20131;-81
2024/01/28 17:41:13;;;;;;;15.70;7.50;;;;;;;;;;10440236;28;20386;-78
2024/01/28 17:46:14;;;;;;;20.03;8.37;;;;;;;;;;10462624;28;20210;-81
2024/01/28 17:51:15;;;;;;;17.33;7.60;;;;;;;;;;10430556;28;20546;-77
2024/01/28 17:56:16;;;;;;;148.93;38.77;;;;;;;;;;10456101;28;20045;-78
2024/01/28 18:01:18;;;;;;;330.93;94.30;;;;;;;;;;10444714;28;20391;-78
2024/01/28 18:06:19;;;;;;;535.50;165.07;;;;;;;;;;10452192;28;20029;-77
2024/01/28 18:11:20;;;;;;;514.03;161.40;;;;;;;;;;10425670;28;20056;-78
2024/01/28 18:16:22;;;;;;;253.77;80.93;;;;;;;;;;10444774;28;20148;-77
2024/01/28 18:21:23;;;;;;;253.43;88.10;;;;;;;;;;10441862;28;20032;-79
2024/01/28 18:26:26;;;;;;;230.57;76.60;;;;;;;;;;10450162;28;20090;-78
2024/01/28 18:31:27;;;;;;;156.13;58.83;;;;;;;;;;10444565;28;20082;-77
2024/01/28 18:36:28;;;;;;;199.60;74.83;;;;;;;;;;10452201;28;20045;-77
2024/01/28 18:41:29;;;;;;;126.47;52.90;;;;;;;;;;10442136;28;20066;-79
2024/01/28 18:46:30;;;;;;;122.07;49.17;;;;;;;;;;10446713;28;20039;-78
2024/01/28 18:51:31;;;;;;;127.23;50.27;;;;;;;;;;10447151;28;20457;-82
2024/01/28 18:56:33;;;;;;;146.50;57.93;;;;;;;;;;10456763;28;20395;-79
2024/01/28 19:01:34;;;;;;;153.27;65.33;;;;;;;;;;10445990;28;20082;-78
2024/01/28 19:06:35;;;;;;;165.33;70.10;;;;;;;;;;10434381;28;20025;-77
2024/01/28 19:11:37;;;;;;;138.73;60.30;;;;;;;;;;10460468;28;20480;-78
2024/01/28 19:16:38;;;;;;;119.63;54.47;;;;;;;;;;10450582;28;20087;-79
2024/01/28 19:21:39;;;;;;;120.50;51.23;;;;;;;;;;10446381;28;20155;-79
2024/01/28 19:26:40;;;;;;;126.07;55.67;;;;;;;;;;10453119;28;20035;-79
2024/01/28 19:31:43;;;;;;;108.00;48.20;;;;;;;;;;10454425;28;20029;-79
2024/01/28 19:36:45;;;;;;;93.60;45.30;;;;;;;;;;10473273;28;20036;-79
2024/01/28 19:41:48;;;;;;;87.17;39.77;;;;;;;;;;10446918;28;20061;-78
2024/01/28 19:46:49;;;;;;;92.03;43.73;;;;;;;;;;10453722;28;20033;-78
2024/01/28 19:51:50;;;;;;;96.20;39.50;;;;;;;;;;10444998;28;20035;-78
2024/01/28 19:56:51;;;;;;;93.37;42.03;;;;;;;;;;10448459;28;20051;-79
2024/01/28 20:01:53;;;;;;;82.20;38.20;;;;;;;;;;10435451;28;20583;-78
2024/01/28 20:06:54;;;;;;;88.73;39.50;;;;;;;;;;10453997;28;20028;-79
2024/01/28 20:11:56;;;;;;;109.60;45.90;;;;;;;;;;10448451;28;20029;-78
2024/01/28 20:16:57;;;;;;;138.33;59.70;;;;;;;;;;10448361;28;20021;-82
2024/01/28 20:21:58;;;;;;;187.33;80.97;;;;;;;;;;10448582;28;20036;-81
2024/01/28 20:26:59;;;;;;;213.40;90.87;;;;;;;;;;10455618;28;20098;-78
2024/01/28 20:32:00;;;;;;;146.77;62.93;;;;;;;;;;10448003;28;20037;-82
2024/01/28 20:37:01;;;;;;;133.17;58.13;;;;;;;;;;10458367;28;20120;-80
2024/01/28 20:42:04;;;;;;;146.30;62.43;;;;;;;;;;10445506;28;20060;-78
2024/01/28 20:47:08;;;;;;;157.27;67.30;;;;;;;;;;10493342;22;20066;-79
2024/01/28 20:52:09;;;;;;;145.03;64.03;;;;;;;;;;10487006;28;20050;-79
2024/01/28 20:57:10;;;;;;;107.47;48.57;;;;;;;;;;10483953;28;20032;-78
2024/01/28 21:02:19;;;;;;;92.73;44.27;;;;;;;;;;10485272;28;20032;-82
2024/01/28 21:07:20;;;;;;;76.67;37.23;;;;;;;;;;10487628;28;20747;-78
2024/01/28 21:12:21;;;;;;;97.73;42.20;;;;;;;;;;10486491;28;20028;-78
2024/01/28 21:17:22;;;;;;;84.57;40.27;;;;;;;;;;10484544;28;20046;-79
2024/01/28 21:22:23;;;;;;;76.13;37.47;;;;;;;;;;10486943;28;20036;-78
2024/01/28 21:27:24;;;;;;;60.07;30.90;;;;;;;;;;10473769;28;20049;-78
2024/01/28 21:32:25;;;;;;;76.73;36.57;;;;;;;;;;10483204;28;20039;-83
2024/01/28 21:37:26;;;;;;;70.93;36.83;;;;;;;;;;10486205;28;20530;-78
2024/01/28 21:42:27;;;;;;;99.17;46.67;;;;;;;;;;10465899;28;20041;-78
2024/01/28 21:47:28;;;;;;;82.07;40.00;;;;;;;;;;10454734;28;20060;-81
2024/01/28 21:52:29;;;;;;;77.87;39.87;;;;;;;;;;10443747;28;20056;-78
2024/01/28 21:57:30;;;;;;;84.33;41.80;;;;;;;;;;10457490;28;20048;-78
2024/01/28 22:02:32;;;;;;;85.77;39.03;;;;;;;;;;10451575;28;20040;-78
2024/01/28 22:07:33;;;;;;;87.33;38.37;;;;;;;;;;10441683;28;20531;-81
2024/01/28 22:12:41;;;;;;;79.93;38.07;;;;;;;;;;10448426;28;20136;-78
2024/01/28 22:17:42;;;;;;;87.87;42.83;;;;;;;;;;10448944;28;20028;-78
2024/01/28 22:22:43;;;;;;;85.33;40.10;;;;;;;;;;10444979;28;20095;-78
2024/01/28 22:27:45;;;;;;;85.20;40.40;;;;;;;;;;10441790;28;20032;-78
2024/01/28 22:32:47;;;;;;;79.73;36.50;;;;;;;;;;10443543;28;20041;-79
2024/01/28 22:37:48;;;;;;;82.23;39.07;;;;;;;;;;10437566;28;20029;-78
2024/01/28 22:42:56;;;;;;;84.47;38.60;;;;;;;;;;10425998;28;20068;-80
2024/01/28 22:47:57;;;;;;;80.00;38.10;;;;;;;;;;10451991;28;20059;-78
2024/01/28 22:52:59;;;;;;;83.10;39.33;;;;;;;;;;10442788;28;20515;-81
2024/01/28 22:58:00;;;;;;;83.80;40.53;;;;;;;;;;10448889;28;20033;-80
2024/01/28 23:03:02;;;;;;;90.07;39.57;;;;;;;;;;10450520;28;20129;-78
2024/01/28 23:08:04;;;;;;;81.07;37.30;;;;;;;;;;10437964;28;20044;-78
2024/01/28 23:13:05;;;;;;;79.93;35.57;;;;;;;;;;10443319;28;20040;-78
2024/01/28 23:18:12;;;;;;;70.10;32.73;;;;;;;;;;10445368;28;20481;-77
2024/01/28 23:23:34;;;;;;;92.30;40.80;;;;;;;;;;10441824;28;20437;-78
2024/01/28 23:28:36;;;;;;;94.97;38.63;;;;;;;;;;10423854;28;20129;-77
2024/01/28 23:33:37;;;;;;;83.73;35.87;;;;;;;;;;10442299;28;20539;-80
2024/01/28 23:38:39;;;;;;;75.10;32.23;;;;;;;;;;10445628;28;20040;-78
2024/01/28 23:43:40;;;;;;;89.70;41.07;;;;;;;;;;10450139;28;20061;-81
2024/01/28 23:48:41;;;;;;;96.43;42.77;;;;;;;;;;10445102;28;20021;-80
2024/01/28 23:53:42;;;;;;;80.63;37.33;;;;;;;;;;10442911;28;20029;-80
2024/01/28 23:58:43;;;;;;;82.97;37.43;;;;;;;;;;10447902;28;20024;-80
